Okatie, South Carolina
Current Conditions -  °F | °C
As of 10:50 AM on Saturday 25 Oct 2014 (Local Time) from KHXD Reporting Station
Clear Clear  
Wind Chill: 66°   Ceiling: Unl
Heat Index: 66°   Visibility: 10mi
Dew Point: 54°   Wind: 6mph
Humidity: 64%   Direction: 350°N
Pressure: 30.03"   Gusts: NA
Location:  32.34°N, 80.86°W
Report Text: KHXD 251450Z 35005KT 10SM SKC 19/12 A3003
Loading
Personal Weather Stations






























Interactive Weather Map
Tropical Storm Tracking
New forecast layout! Learn more

10-Day Weather Forecast

Advertisements
Track Severe Weather on mobile